Nonthaburi, Thailand
Current Conditions -  °F | °C
As of 10:30 PM on Saturday 20 Dec 2014 (Local Time) from VTBD Reporting Station
Clear Clear  
Wind Chill: 26°   Ceiling: Unl
Heat Index: 27°   Visibility: 6mi
Dew Point: 17°   Wind: 3mph
Humidity: 57%   Direction: 320°NW
Pressure: 29.94"   Gusts: NA
Location:  13.84°N, 100.52°E
Report Text: VTBD 201530Z 32003KT CAVOK 26/17 Q1014 NOSIG
Loading
Personal Weather Stations






























Interactive Weather Map New forecast layout! Learn more

10-Day Weather Forecast

Advertisements
Track Severe Weather on mobile